Time;durP1;ratioP1;P1;durP2;ratioP2;P2;SDS_P1;SDS_P2;PMS_P1;PMS_P2;Temp;Humidity;BMP_temperature;BMP_pressure;BME280_temperature;BME280_humidity;BME280_pressure;Samples;Min_cycle;Max_cycle;Signal;HPM_P1;HPM_P2
2023/12/08 00:01:48;;;;;;;8.10;4.97;;;10.90;99.90;;;;;;5021458;28;20056;-35
2023/12/08 00:04:14;;;;;;;7.72;4.45;;;10.60;99.90;;;;;;5020360;28;20061;-35
2023/12/08 00:06:39;;;;;;;7.78;4.20;;;11.40;99.90;;;;;;5022373;28;20069;-34
2023/12/08 00:09:05;;;;;;;7.00;4.13;;;11.10;99.90;;;;;;5023286;28;20369;-35
2023/12/08 00:11:30;;;;;;;8.82;4.30;;;11.10;99.90;;;;;;5004975;28;20033;-33
2023/12/08 00:13:57;;;;;;;7.78;4.40;;;11.00;99.90;;;;;;5019663;28;20626;-36
2023/12/08 00:16:23;;;;;;;8.57;5.20;;;;;;;;;;5018196;28;20045;-35
2023/12/08 00:18:48;;;;;;;8.75;4.50;;;11.10;99.90;;;;;;5024074;28;20170;-35
2023/12/08 00:21:14;;;;;;;7.32;4.13;;;11.60;99.90;;;;;;5018320;28;20037;-35
2023/12/08 00:23:39;;;;;;;8.18;4.05;;;11.30;99.90;;;;;;5023415;28;20038;-35
2023/12/08 00:26:05;;;;;;;6.50;3.78;;;11.00;99.90;;;;;;5023147;28;20183;-33
2023/12/08 00:28:31;;;;;;;7.90;4.40;;;11.40;99.90;;;;;;5020011;28;20034;-35
2023/12/08 00:30:57;;;;;;;10.43;4.30;;;11.30;99.90;;;;;;5020927;28;20052;-37
2023/12/08 00:33:23;;;;;;;7.10;3.80;;;11.60;99.90;;;;;;5016743;28;20049;-37
2023/12/08 00:35:48;;;;;;;7.18;4.07;;;11.30;99.90;;;;;;5022537;28;20457;-35
2023/12/08 00:38:14;;;;;;;7.63;3.80;;;11.90;99.90;;;;;;5017540;28;20099;-37
2023/12/08 00:40:41;;;;;;;7.22;4.00;;;11.20;99.90;;;;;;5023065;28;20125;-33
2023/12/08 00:43:06;;;;;;;6.97;4.18;;;10.80;99.90;;;;;;5018120;28;20040;-35
2023/12/08 00:45:32;;;;;;;7.90;3.97;;;11.40;99.90;;;;;;5018648;28;20042;-36
2023/12/08 00:47:58;;;;;;;6.55;3.85;;;11.10;99.90;;;;;;5021571;28;20041;-38
2023/12/08 00:50:23;;;;;;;6.72;3.72;;;11.60;99.90;;;;;;5022498;28;20408;-38
2023/12/08 00:52:49;;;;;;;7.10;3.70;;;11.30;99.90;;;;;;5022020;28;20095;-36
2023/12/08 00:55:15;;;;;;;6.68;3.70;;;11.70;99.90;;;;;;5023423;28;20045;-36
2023/12/08 00:57:40;;;;;;;8.20;3.90;;;11.60;99.90;;;;;;5023103;28;20041;-36
2023/12/08 01:00:07;;;;;;;7.80;4.32;;;11.70;99.90;;;;;;5023266;28;20480;-36
2023/12/08 01:02:32;;;;;;;6.72;3.78;;;11.20;99.90;;;;;;5022872;28;20044;-34
2023/12/08 01:04:58;;;;;;;7.55;3.42;;;;;;;;;;5028007;28;20497;-36
2023/12/08 01:07:24;;;;;;;6.07;3.50;;;11.10;99.90;;;;;;5033581;28;20048;-33
2023/12/08 01:09:50;;;;;;;7.50;3.75;;;;;;;;;;5020659;28;20095;-33
2023/12/08 01:12:16;;;;;;;6.68;3.53;;;10.80;99.90;;;;;;5023013;28;20137;-33
2023/12/08 01:14:41;;;;;;;5.68;3.33;;;11.50;99.90;;;;;;5018608;28;20116;-35
2023/12/08 01:17:07;;;;;;;7.95;3.90;;;11.10;99.90;;;;;;5026180;28;20449;-34
2023/12/08 01:19:33;;;;;;;6.80;3.47;;;11.50;99.90;;;;;;5025240;28;20079;-34
2023/12/08 01:21:58;;;;;;;6.63;3.72;;;11.10;99.90;;;;;;5025440;28;20121;-34
2023/12/08 01:24:24;;;;;;;6.72;3.60;;;11.50;99.90;;;;;;5007787;28;20052;-36
2023/12/08 01:26:50;;;;;;;6.55;3.30;;;11.10;99.90;;;;;;5028543;28;20131;-35
2023/12/08 01:29:16;;;;;;;5.93;3.30;;;11.00;99.90;;;;;;5030172;28;20080;-34
2023/12/08 01:31:42;;;;;;;5.88;3.30;;;10.80;99.90;;;;;;5029437;28;20042;-36
2023/12/08 01:34:08;;;;;;;7.00;3.78;;;11.20;99.90;;;;;;5029549;28;20065;-34
2023/12/08 01:36:33;;;;;;;6.88;3.20;;;11.80;99.90;;;;;;5030757;28;20508;-33
2023/12/08 01:38:59;;;;;;;6.80;3.50;;;11.30;99.90;;;;;;5030517;28;20484;-34
2023/12/08 01:41:25;;;;;;;7.25;3.20;;;11.30;99.90;;;;;;5030374;28;20033;-34
2023/12/08 01:43:50;;;;;;;6.38;3.72;;;10.70;99.90;;;;;;5028475;28;20076;-35
2023/12/08 01:46:19;;;;;;;7.25;3.47;;;11.50;99.90;;;;;;5031129;28;20500;-35
2023/12/08 01:48:46;;;;;;;6.43;3.38;;;11.00;99.90;;;;;;5029357;28;20440;-35
2023/12/08 01:51:13;;;;;;;6.97;3.33;;;11.50;99.90;;;;;;5029688;28;20119;-36
2023/12/08 01:53:41;;;;;;;5.80;2.90;;;10.70;99.90;;;;;;5042258;28;20049;-35
2023/12/08 01:56:08;;;;;;;6.63;3.60;;;11.10;99.90;;;;;;5026660;28;20069;-35
2023/12/08 01:58:34;;;;;;;8.43;3.45;;;11.50;99.90;;;;;;5028974;28;20040;-34
2023/12/08 02:01:04;;;;;;;5.82;3.00;;;11.30;99.90;;;;;;5030981;28;20037;-35
2023/12/08 02:03:35;;;;;;;6.60;3.10;;;11.30;99.90;;;;;;5026872;28;20052;-35
2023/12/08 02:06:00;;;;;;;5.50;2.75;;;11.20;99.90;;;;;;5031018;28;20038;-35
2023/12/08 02:08:27;;;;;;;5.43;2.85;;;11.10;99.90;;;;;;5034140;28;20134;-35
2023/12/08 02:10:53;;;;;;;6.50;3.30;;;;;;;;;;5031909;28;20032;-35
2023/12/08 02:13:20;;;;;;;6.38;2.95;;;11.30;99.90;;;;;;5048149;28;20051;-35
2023/12/08 02:15:49;;;;;;;5.85;3.03;;;11.20;99.90;;;;;;5033422;28;20100;-32
2023/12/08 02:18:15;;;;;;;6.05;3.42;;;11.40;99.90;;;;;;5045017;28;20113;-35
2023/12/08 02:20:41;;;;;;;6.40;3.25;;;11.10;99.90;;;;;;5029877;28;20560;-33
2023/12/08 02:23:07;;;;;;;5.97;3.20;;;10.80;99.90;;;;;;5035148;28;20037;-34
2023/12/08 02:25:33;;;;;;;6.07;3.30;;;11.50;99.90;;;;;;5031070;28;20037;-35
2023/12/08 02:27:59;;;;;;;5.68;2.72;;;11.60;99.90;;;;;;5034091;28;20041;-35
2023/12/08 02:30:25;;;;;;;5.78;2.67;;;11.10;99.90;;;;;;5035293;28;20030;-34
2023/12/08 02:33:28;;;;;;;6.45;2.83;;;11.80;99.90;;;;;;5027617;28;20037;-35
2023/12/08 02:35:54;;;;;;;4.95;2.50;;;10.80;99.90;;;;;;5023584;28;20038;-36
2023/12/08 02:38:21;;;;;;;5.57;2.80;;;11.10;99.90;;;;;;5021407;28;20106;-36
2023/12/08 02:40:47;;;;;;;5.25;2.67;;;11.70;99.90;;;;;;5021352;28;20124;-33
2023/12/08 02:43:13;;;;;;;5.07;2.50;;;11.90;99.90;;;;;;5026816;28;20124;-35
2023/12/08 02:45:38;;;;;;;5.18;2.40;;;10.90;99.90;;;;;;5021312;28;20505;-37
2023/12/08 02:48:04;;;;;;;5.30;2.55;;;11.10;99.90;;;;;;5018252;28;20042;-33
2023/12/08 02:50:30;;;;;;;6.00;3.20;;;11.50;99.90;;;;;;5029402;28;20046;-34
2023/12/08 02:52:55;;;;;;;6.63;2.88;;;11.70;99.90;;;;;;5029524;28;20033;-33
2023/12/08 02:55:21;;;;;;;5.60;2.30;;;11.70;99.90;;;;;;5029364;28;20036;-34
2023/12/08 02:57:46;;;;;;;5.50;2.60;;;11.60;99.90;;;;;;5023212;28;20497;-34
2023/12/08 03:00:13;;;;;;;5.00;2.28;;;12.10;99.90;;;;;;5027752;28;20040;-35
2023/12/08 03:02:38;;;;;;;5.25;2.70;;;12.30;99.90;;;;;;5024193;28;20034;-32
2023/12/08 03:05:04;;;;;;;4.75;2.15;;;12.30;99.90;;;;;;5022326;28;20048;-34
2023/12/08 03:07:30;;;;;;;5.05;2.50;;;11.80;99.90;;;;;;5026856;28;20048;-35
2023/12/08 03:09:56;;;;;;;5.60;2.60;;;;;;;;;;5028897;28;20045;-34
2023/12/08 03:12:22;;;;;;;4.90;2.38;;;11.80;99.90;;;;;;5027401;28;20129;-37
2023/12/08 03:14:47;;;;;;;6.10;2.47;;;12.30;99.90;;;;;;5037551;28;20124;-34
2023/12/08 03:17:13;;;;;;;5.32;2.60;;;12.00;99.90;;;;;;5030890;28;20501;-35
2023/12/08 03:19:40;;;;;;;5.28;2.45;;;12.80;99.90;;;;;;5030701;28;20489;-36
2023/12/08 03:22:06;;;;;;;5.30;2.53;;;12.20;99.90;;;;;;5029803;28;20033;-35
2023/12/08 03:24:31;;;;;;;5.13;2.17;;;12.40;99.90;;;;;;5034204;28;20030;-35
2023/12/08 03:26:57;;;;;;;5.15;2.22;;;12.80;99.90;;;;;;5033640;28;20514;-34
2023/12/08 03:29:23;;;;;;;6.07;2.60;;;12.20;99.90;;;;;;5036576;28;22160;-36
2023/12/08 03:31:48;;;;;;;5.32;2.15;;;12.30;99.90;;;;;;5038232;28;20036;-37
2023/12/08 03:34:14;;;;;;;5.78;2.10;;;12.10;99.90;;;;;;5033681;28;20041;-35
2023/12/08 03:36:39;;;;;;;6.00;2.70;;;12.30;99.90;;;;;;5038734;28;20029;-34
2023/12/08 03:39:05;;;;;;;5.13;2.58;;;12.10;99.90;;;;;;5033527;28;20037;-34
2023/12/08 03:41:31;;;;;;;5.30;2.30;;;11.90;99.90;;;;;;5033584;28;20040;-35
2023/12/08 03:43:57;;;;;;;5.38;2.20;;;;;;;;;;5035507;28;20118;-35
2023/12/08 03:46:23;;;;;;;5.13;2.20;;;11.90;99.90;;;;;;5035105;28;20084;-35
2023/12/08 03:48:49;;;;;;;6.25;2.63;;;12.60;99.90;;;;;;5036421;28;20065;-33
2023/12/08 03:51:14;;;;;;;5.18;2.45;;;12.30;99.90;;;;;;5033079;28;20553;-35
2023/12/08 03:53:40;;;;;;;5.78;2.40;;;12.20;99.90;;;;;;5034226;28;20034;-35
2023/12/08 03:56:07;;;;;;;5.15;2.35;;;12.10;99.90;;;;;;5033231;28;20037;-35
2023/12/08 03:58:32;;;;;;;5.25;2.60;;;12.00;99.90;;;;;;5034013;28;20048;-36
2023/12/08 04:00:58;;;;;;;5.50;2.75;;;12.20;99.90;;;;;;5033969;28;20057;-35
2023/12/08 04:03:23;;;;;;;5.20;2.40;;;12.40;99.90;;;;;;5033790;28;20586;-34
2023/12/08 04:05:49;;;;;;;5.15;2.45;;;12.60;99.90;;;;;;5032150;28;20069;-35
2023/12/08 04:08:15;;;;;;;5.03;2.33;;;12.20;99.90;;;;;;5031884;28;20035;-35
2023/12/08 04:10:41;;;;;;;5.60;2.38;;;12.60;99.90;;;;;;5033913;28;20044;-35
2023/12/08 04:13:07;;;;;;;5.70;2.33;;;11.80;99.90;;;;;;5029981;28;20037;-35
2023/12/08 04:15:32;;;;;;;5.18;2.25;;;11.80;99.90;;;;;;5031662;28;20048;-36
2023/12/08 04:17:58;;;;;;;5.85;2.78;;;12.80;99.90;;;;;;5031940;28;20394;-33
2023/12/08 04:20:24;;;;;;;6.38;2.70;;;12.30;99.90;;;;;;5030660;28;20064;-34
2023/12/08 04:22:49;;;;;;;6.15;2.83;;;12.20;99.90;;;;;;5046384;28;20033;-33
2023/12/08 04:25:15;;;;;;;5.47;2.60;;;12.50;99.90;;;;;;5032319;28;20497;-35
2023/12/08 04:27:41;;;;;;;5.50;2.67;;;12.60;99.90;;;;;;5032016;28;20501;-36
2023/12/08 04:30:07;;;;;;;6.00;2.60;;;12.40;99.90;;;;;;5030754;28;20052;-33
2023/12/08 04:32:33;;;;;;;5.60;2.40;;;12.50;99.90;;;;;;5032562;28;20042;-34
2023/12/08 04:34:58;;;;;;;6.05;2.60;;;13.20;99.90;;;;;;5026604;28;20050;-34
2023/12/08 04:37:24;;;;;;;5.57;2.60;;;12.30;99.90;;;;;;5031360;28;20033;-34
2023/12/08 04:39:50;;;;;;;5.28;2.50;;;12.50;99.90;;;;;;5031655;28;20488;-35
2023/12/08 04:42:16;;;;;;;4.80;2.45;;;12.40;99.90;;;;;;5025471;28;20492;-34
2023/12/08 04:44:42;;;;;;;4.93;2.42;;;;;;;;;;5031990;28;20045;-36
2023/12/08 04:47:09;;;;;;;5.20;2.40;;;;;;;;;;5027302;28;20044;-33
2023/12/08 04:49:35;;;;;;;5.35;2.58;;;12.00;99.90;;;;;;5023925;28;20046;-35
2023/12/08 04:52:01;;;;;;;6.15;2.60;;;12.30;99.90;;;;;;5022697;28;20037;-34
2023/12/08 04:54:26;;;;;;;5.32;2.60;;;12.20;99.90;;;;;;5039998;28;20139;-34
2023/12/08 04:56:52;;;;;;;5.22;2.40;;;12.50;99.90;;;;;;5033552;28;20055;-31
2023/12/08 04:59:18;;;;;;;4.90;2.33;;;13.20;99.90;;;;;;5035891;28;20113;-37
2023/12/08 05:01:43;;;;;;;5.90;2.50;;;12.10;99.90;;;;;;5030758;28;20112;-34
2023/12/08 05:04:09;;;;;;;5.30;2.38;;;12.20;99.90;;;;;;5029344;28;20416;-34
2023/12/08 05:06:36;;;;;;;5.00;2.30;;;12.10;99.90;;;;;;5046570;28;20485;-35
2023/12/08 05:09:02;;;;;;;4.72;2.15;;;12.90;99.90;;;;;;5032074;28;20053;-34
2023/12/08 05:11:28;;;;;;;5.50;2.47;;;12.10;99.90;;;;;;5013999;28;20081;-34
2023/12/08 05:13:53;;;;;;;5.28;2.60;;;12.60;99.90;;;;;;5028253;28;20080;-34
2023/12/08 05:16:19;;;;;;;5.00;2.00;;;13.50;99.90;;;;;;5027569;28;20029;-35
2023/12/08 05:18:45;;;;;;;5.95;2.35;;;12.80;99.90;;;;;;5026966;28;20457;-34
2023/12/08 05:21:11;;;;;;;5.53;2.80;;;12.90;99.90;;;;;;5029496;28;20060;-34
2023/12/08 05:23:36;;;;;;;5.35;2.53;;;12.70;99.90;;;;;;5029826;28;20785;-34
2023/12/08 05:26:02;;;;;;;5.32;2.80;;;12.40;99.90;;;;;;5018294;28;20454;-34
2023/12/08 05:28:27;;;;;;;4.80;2.40;;;12.40;99.90;;;;;;5022315;28;20044;-33
2023/12/08 05:30:54;;;;;;;4.72;2.30;;;12.30;99.90;;;;;;5017493;28;20080;-32
2023/12/08 05:33:20;;;;;;;4.85;2.65;;;11.90;99.90;;;;;;5025848;28;20029;-35
2023/12/08 05:35:45;;;;;;;5.20;2.60;;;13.20;99.90;;;;;;5019676;28;20119;-34
2023/12/08 05:38:11;;;;;;;10.77;3.60;;;12.40;99.90;;;;;;5027489;28;20029;-34
2023/12/08 05:40:37;;;;;;;34.55;10.05;;;;;;;;;;5026335;28;20578;-34
2023/12/08 05:43:03;;;;;;;39.20;10.05;;;12.30;99.90;;;;;;5021250;28;20128;-32
2023/12/08 05:45:29;;;;;;;54.13;13.07;;;12.50;99.90;;;;;;5023836;28;20090;-33
2023/12/08 05:47:54;;;;;;;52.22;13.50;;;12.70;99.90;;;;;;5022133;28;20401;-34
2023/12/08 05:50:20;;;;;;;40.00;12.23;;;13.40;99.90;;;;;;5018677;28;20041;-35
2023/12/08 05:52:46;;;;;;;33.22;10.30;;;12.40;99.90;;;;;;5027533;28;20030;-35
2023/12/08 05:55:11;;;;;;;27.77;8.98;;;13.40;99.90;;;;;;5026070;28;20508;-34
2023/12/08 05:57:37;;;;;;;24.15;9.52;;;13.30;99.90;;;;;;5024466;28;20059;-34
2023/12/08 06:00:06;;;;;;;21.67;8.43;;;13.00;99.90;;;;;;5020540;28;20033;-35
2023/12/08 06:02:32;;;;;;;26.70;9.52;;;12.40;99.90;;;;;;5027457;28;20041;-33
2023/12/08 06:04:57;;;;;;;26.27;7.70;;;13.10;99.90;;;;;;5028877;28;20120;-35
2023/12/08 06:07:23;;;;;;;18.95;7.88;;;12.60;99.90;;;;;;5022124;28;20038;-37
2023/12/08 06:09:49;;;;;;;20.42;7.43;;;12.50;99.90;;;;;;5021113;28;20492;-35
2023/12/08 06:12:15;;;;;;;20.60;7.35;;;12.80;99.90;;;;;;5025164;28;20045;-36
2023/12/08 06:14:40;;;;;;;23.80;8.75;;;12.80;99.90;;;;;;5027768;28;20079;-35
2023/12/08 06:17:06;;;;;;;17.33;8.35;;;12.80;99.90;;;;;;5024158;28;20044;-35
2023/12/08 06:19:32;;;;;;;15.93;7.32;;;12.50;99.90;;;;;;5034178;28;20065;-35
2023/12/08 06:21:57;;;;;;;20.33;6.75;;;12.90;99.90;;;;;;5024500;28;20064;-35
2023/12/08 06:24:23;;;;;;;19.10;7.30;;;13.30;99.90;;;;;;5021678;28;20063;-34
2023/12/08 06:26:48;;;;;;;17.48;5.93;;;12.80;99.90;;;;;;5019866;28;20092;-32
2023/12/08 06:29:14;;;;;;;12.23;5.53;;;12.30;99.90;;;;;;5023646;28;20046;-35
2023/12/08 06:31:43;;;;;;;13.93;5.38;;;12.70;99.90;;;;;;5024707;28;20057;-35
2023/12/08 06:34:08;;;;;;;14.43;5.80;;;13.70;99.90;;;;;;5024160;28;20049;-35
2023/12/08 06:36:34;;;;;;;11.73;5.47;;;12.60;99.90;;;;;;5023975;28;20095;-36
2023/12/08 06:39:00;;;;;;;12.15;5.60;;;12.50;99.90;;;;;;5019648;28;20057;-35
2023/12/08 06:41:25;;;;;;;11.00;5.00;;;13.00;99.90;;;;;;5019198;28;20069;-32
2023/12/08 06:43:51;;;;;;;11.00;5.20;;;13.40;99.90;;;;;;5021600;28;20065;-35
2023/12/08 06:46:17;;;;;;;9.35;4.53;;;12.50;99.90;;;;;;5024634;28;20104;-35
2023/12/08 06:48:42;;;;;;;7.90;4.28;;;13.20;99.90;;;;;;5022241;28;20038;-35
2023/12/08 06:51:08;;;;;;;9.18;4.20;;;13.40;99.90;;;;;;5021956;28;20033;-36
2023/12/08 06:53:33;;;;;;;7.78;3.75;;;12.50;99.90;;;;;;5026180;28;20049;-35
2023/12/08 06:55:59;;;;;;;8.90;4.47;;;13.10;99.90;;;;;;5025898;28;20061;-35
2023/12/08 06:58:24;;;;;;;9.27;4.00;;;13.50;99.90;;;;;;5024086;28;20116;-35
2023/12/08 07:00:50;;;;;;;7.35;3.75;;;12.30;99.90;;;;;;5022523;28;20037;-35
2023/12/08 07:03:16;;;;;;;8.65;4.28;;;12.70;99.90;;;;;;5024026;28;20038;-34
2023/12/08 07:05:41;;;;;;;8.63;4.70;;;13.30;99.90;;;;;;5040398;28;20037;-35
2023/12/08 07:08:07;;;;;;;8.15;4.32;;;13.40;99.90;;;;;;5022799;28;20037;-34
2023/12/08 07:10:33;;;;;;;8.15;3.85;;;13.30;99.90;;;;;;5020673;28;20116;-33
2023/12/08 07:12:59;;;;;;;7.60;4.10;;;12.20;99.90;;;;;;5024337;28;20532;-34
2023/12/08 07:15:25;;;;;;;7.75;4.28;;;12.50;99.90;;;;;;5020786;28;20124;-34
2023/12/08 07:17:51;;;;;;;14.43;5.10;;;13.00;99.90;;;;;;5020082;28;20120;-34
2023/12/08 07:20:18;;;;;;;9.10;4.45;;;12.70;99.90;;;;;;5023018;28;20057;-35
2023/12/08 07:22:44;;;;;;;12.93;5.78;;;12.50;99.90;;;;;;5023572;28;20209;-35
2023/12/08 07:25:12;;;;;;;12.70;5.93;;;12.30;99.90;;;;;;5023657;28;20064;-35
2023/12/08 07:27:38;;;;;;;20.77;7.63;;;12.60;99.90;;;;;;5027785;28;20504;-31
2023/12/08 07:30:04;;;;;;;15.63;6.18;;;12.70;99.90;;;;;;5024311;28;20073;-35
2023/12/08 07:32:30;;;;;;;16.58;6.95;;;14.10;99.90;;;;;;5024485;28;20044;-35
2023/12/08 07:34:55;;;;;;;17.67;6.18;;;12.90;99.90;;;;;;5023837;28;20033;-34
2023/12/08 07:37:22;;;;;;;13.68;5.35;;;12.80;99.90;;;;;;5025311;28;20033;-33
2023/12/08 07:39:47;;;;;;;13.15;5.53;;;12.00;99.90;;;;;;5018311;28;20057;-35
2023/12/08 07:42:14;;;;;;;12.27;5.20;;;12.50;99.90;;;;;;5013371;28;20095;-35
2023/12/08 07:44:39;;;;;;;12.40;4.47;;;12.60;99.90;;;;;;5018849;28;20041;-35
2023/12/08 07:47:05;;;;;;;11.50;5.38;;;12.70;99.90;;;;;;5022389;28;20052;-35
2023/12/08 07:49:31;;;;;;;9.70;4.30;;;12.60;99.90;;;;;;5018197;28;20575;-35
2023/12/08 07:51:57;;;;;;;11.30;4.97;;;12.70;99.90;;;;;;5015389;28;20041;-34
2023/12/08 07:54:23;;;;;;;9.18;4.55;;;12.50;99.90;;;;;;5017898;28;20042;-34
2023/12/08 07:56:48;;;;;;;9.10;4.60;;;12.70;99.90;;;;;;5022813;28;20044;-34
2023/12/08 07:59:14;;;;;;;11.02;4.55;;;12.60;99.90;;;;;;5016212;28;20037;-34
2023/12/08 08:01:40;;;;;;;9.65;4.45;;;13.00;99.90;;;;;;5020599;28;20030;-32
2023/12/08 08:04:06;;;;;;;9.57;4.28;;;12.70;99.90;;;;;;5012918;28;20064;-35
2023/12/08 08:06:32;;;;;;;7.45;3.88;;;12.30;99.90;;;;;;5017713;28;20483;-34
2023/12/08 08:08:57;;;;;;;8.45;4.13;;;12.30;99.90;;;;;;5022600;28;20132;-34
2023/12/08 08:11:23;;;;;;;7.57;4.38;;;12.80;99.90;;;;;;5027763;28;20042;-35
2023/12/08 08:13:48;;;;;;;12.45;4.15;;;13.10;99.90;;;;;;5029098;28;20483;-32
2023/12/08 08:16:14;;;;;;;8.73;4.22;;;12.40;99.90;;;;;;5029478;28;20034;-34
2023/12/08 08:18:40;;;;;;;7.53;4.28;;;12.60;99.90;;;;;;5028435;28;20034;-33
2023/12/08 08:21:05;;;;;;;9.93;4.78;;;12.70;99.90;;;;;;5026056;28;20558;-35
2023/12/08 08:23:31;;;;;;;9.57;4.10;;;12.90;99.90;;;;;;5023374;28;20083;-33
2023/12/08 08:25:56;;;;;;;7.22;3.70;;;12.80;99.90;;;;;;5024172;28;20037;-34
2023/12/08 08:28:24;;;;;;;6.57;3.90;;;12.60;99.90;;;;;;5025320;28;20456;-34
2023/12/08 08:30:49;;;;;;;7.35;3.92;;;11.80;99.90;;;;;;5021123;28;20037;-33
2023/12/08 08:33:15;;;;;;;7.03;3.72;;;12.30;99.90;;;;;;5025705;28;20052;-35
2023/12/08 08:35:41;;;;;;;7.38;3.53;;;;;;;;;;5032063;28;20400;-34
2023/12/08 08:38:07;;;;;;;7.03;3.88;;;12.80;99.90;;;;;;5026801;28;20487;-35
2023/12/08 08:40:32;;;;;;;8.65;3.40;;;11.80;99.90;;;;;;5028323;28;20054;-35
2023/12/08 08:42:58;;;;;;;7.50;3.47;;;12.20;99.90;;;;;;5028956;28;20033;-34
2023/12/08 08:45:24;;;;;;;8.45;3.95;;;12.10;99.90;;;;;;5020089;28;20049;-34
2023/12/08 08:47:49;;;;;;;8.85;3.72;;;12.30;99.90;;;;;;5027105;28;20113;-31
2023/12/08 08:50:15;;;;;;;6.85;3.47;;;12.40;99.90;;;;;;5028750;28;20042;-35
2023/12/08 08:52:41;;;;;;;10.85;3.38;;;12.10;99.90;;;;;;5029519;28;20048;-35
2023/12/08 08:55:07;;;;;;;6.28;3.30;;;12.10;99.90;;;;;;5028281;28;20033;-35
2023/12/08 08:57:33;;;;;;;6.70;3.28;;;12.30;99.90;;;;;;5023752;28;20037;-36
2023/12/08 08:59:59;;;;;;;7.72;3.45;;;12.80;99.90;;;;;;5020678;28;20041;-35
2023/12/08 09:02:24;;;;;;;7.20;3.47;;;12.60;99.90;;;;;;5027714;28;20044;-35
2023/12/08 09:04:50;;;;;;;6.22;3.47;;;12.30;99.90;;;;;;5027988;28;20506;-35
2023/12/08 09:07:17;;;;;;;5.80;3.05;;;12.40;99.90;;;;;;5028959;28;20048;-35
2023/12/08 09:09:42;;;;;;;7.65;3.75;;;12.80;99.90;;;;;;5028718;28;20417;-35
2023/12/08 09:12:08;;;;;;;6.55;3.45;;;12.10;99.90;;;;;;5029435;28;20037;-35
2023/12/08 09:14:35;;;;;;;6.68;3.08;;;12.30;99.90;;;;;;5028733;28;20134;-35
2023/12/08 09:17:05;;;;;;;7.75;3.72;;;13.20;99.90;;;;;;5029944;28;20061;-35
2023/12/08 09:19:33;;;;;;;7.78;3.63;;;12.40;99.90;;;;;;5027953;28;20146;-37
2023/12/08 09:21:58;;;;;;;6.80;3.40;;;12.90;99.90;;;;;;5027569;28;20048;-35
2023/12/08 09:24:25;;;;;;;8.10;3.42;;;12.10;99.90;;;;;;5027856;28;20041;-35
2023/12/08 09:26:52;;;;;;;7.18;3.17;;;12.50;99.90;;;;;;5028610;28;20067;-36
2023/12/08 09:29:18;;;;;;;6.97;3.60;;;12.40;99.90;;;;;;5028769;28;20033;-35
2023/12/08 09:31:44;;;;;;;6.55;3.10;;;12.30;99.90;;;;;;5029628;28;20083;-35
2023/12/08 09:34:10;;;;;;;5.80;3.30;;;12.30;99.90;;;;;;5027878;28;20045;-35
2023/12/08 09:36:35;;;;;;;6.97;3.53;;;12.30;99.90;;;;;;5020956;28;20385;-36
2023/12/08 09:39:04;;;;;;;7.20;3.13;;;12.10;99.90;;;;;;5025086;28;20071;-35
2023/12/08 09:41:30;;;;;;;6.28;3.30;;;12.80;99.90;;;;;;5025591;28;20026;-36
2023/12/08 09:44:12;;;;;;;6.00;3.03;;;12.20;99.90;;;;;;5028248;28;20408;-35
2023/12/08 09:46:45;;;;;;;5.82;3.08;;;12.20;99.90;;;;;;5022738;28;20044;-35
2023/12/08 09:49:36;;;;;;;6.85;3.85;;;12.20;99.90;;;;;;5020393;28;20481;-38
2023/12/08 09:52:03;;;;;;;7.30;3.40;;;12.10;99.90;;;;;;5026803;28;20088;-35
2023/12/08 09:54:29;;;;;;;7.13;3.95;;;12.50;99.90;;;;;;5028529;28;20056;-35
2023/12/08 09:56:56;;;;;;;7.18;3.70;;;12.10;99.90;;;;;;5027847;28;20384;-35
2023/12/08 09:59:24;;;;;;;7.45;3.60;;;11.90;99.90;;;;;;5027542;28;20505;-33
2023/12/08 10:01:50;;;;;;;7.38;3.67;;;12.50;99.90;;;;;;5026171;28;20581;-36
2023/12/08 10:04:16;;;;;;;6.45;3.85;;;12.10;99.90;;;;;;5020596;28;20092;-33
2023/12/08 10:06:43;;;;;;;7.32;3.90;;;12.30;99.90;;;;;;5022094;28;20045;-35
2023/12/08 10:09:11;;;;;;;8.00;3.67;;;12.50;99.90;;;;;;5021326;28;20136;-35
2023/12/08 10:11:38;;;;;;;6.70;3.50;;;12.00;99.90;;;;;;5023600;28;20060;-35
2023/12/08 10:14:05;;;;;;;8.50;3.60;;;12.30;99.90;;;;;;5025105;28;20481;-33
2023/12/08 10:16:31;;;;;;;6.40;3.22;;;12.20;99.90;;;;;;5024903;28;20116;-37
2023/12/08 10:19:05;;;;;;;6.85;3.67;;;12.10;99.90;;;;;;5015634;28;20116;-36
2023/12/08 10:21:31;;;;;;;7.32;4.25;;;12.40;99.90;;;;;;5012167;28;20041;-36
2023/12/08 10:24:00;;;;;;;6.72;3.45;;;12.20;99.90;;;;;;5026001;28;20034;-33
2023/12/08 10:26:27;;;;;;;6.78;3.42;;;12.40;99.90;;;;;;5022980;28;20038;-36
2023/12/08 10:28:56;;;;;;;6.72;3.50;;;12.10;99.90;;;;;;5022200;28;20467;-35
2023/12/08 10:31:22;;;;;;;6.70;3.88;;;12.20;99.90;;;;;;5006689;28;20049;-35
2023/12/08 10:33:49;;;;;;;6.00;3.40;;;12.30;99.90;;;;;;5026342;28;20386;-35
2023/12/08 10:36:15;;;;;;;6.53;4.03;;;12.40;99.90;;;;;;5004244;28;20385;-36
2023/12/08 10:38:41;;;;;;;6.10;3.53;;;12.10;99.90;;;;;;5027661;28;20514;-35
2023/12/08 10:41:12;;;;;;;7.03;3.85;;;11.60;99.90;;;;;;5025312;28;20038;-35
2023/12/08 10:43:39;;;;;;;7.80;3.97;;;12.80;99.90;;;;;;5024867;28;20319;-36
2023/12/08 10:46:06;;;;;;;7.03;3.80;;;12.10;99.90;;;;;;5023836;28;20116;-35
2023/12/08 10:48:34;;;;;;;7.22;3.70;;;12.30;99.90;;;;;;5026443;28;20049;-33
2023/12/08 10:51:00;;;;;;;8.32;3.85;;;12.10;99.90;;;;;;5022823;28;20085;-35
2023/12/08 10:53:26;;;;;;;7.50;4.20;;;12.20;99.90;;;;;;5027485;28;20045;-35
2023/12/08 10:56:00;;;;;;;6.38;4.00;;;12.50;99.90;;;;;;5021459;28;20033;-36
2023/12/08 10:58:28;;;;;;;6.32;3.78;;;12.20;99.90;;;;;;5015999;28;20037;-35
2023/12/08 11:00:55;;;;;;;7.45;4.10;;;12.50;99.90;;;;;;5023783;28;20033;-35
2023/12/08 11:03:21;;;;;;;6.93;4.00;;;11.60;99.90;;;;;;5022816;28;20111;-37
2023/12/08 11:06:02;;;;;;;6.80;3.80;;;12.70;99.90;;;;;;5025726;28;20382;-36
2023/12/08 11:08:29;;;;;;;7.35;3.80;;;11.70;99.90;;;;;;5019277;28;20041;-36
2023/12/08 11:10:57;;;;;;;6.97;3.83;;;12.50;99.90;;;;;;5026652;28;20041;-35
2023/12/08 11:13:27;;;;;;;8.23;3.95;;;12.10;99.90;;;;;;5027267;28;20053;-36
2023/12/08 11:16:18;;;;;;;6.47;3.63;;;12.20;99.90;;;;;;5024614;28;20384;-35
2023/12/08 11:18:44;;;;;;;6.72;3.42;;;12.10;99.90;;;;;;5017931;28;20120;-34
2023/12/08 11:21:11;;;;;;;7.00;3.85;;;12.20;99.90;;;;;;5030428;28;20508;-35
2023/12/08 11:23:39;;;;;;;7.00;4.05;;;13.00;99.90;;;;;;5031440;28;20041;-35
2023/12/08 11:26:41;;;;;;;6.70;3.80;;;11.60;99.90;;;;;;5024354;28;20112;-35
2023/12/08 11:29:25;;;;;;;9.00;3.80;;;12.60;99.90;;;;;;5024143;28;20416;-35
2023/12/08 11:31:57;;;;;;;8.77;4.53;;;12.50;99.90;;;;;;5020436;28;20140;-33
2023/12/08 11:34:34;;;;;;;8.52;4.95;;;11.90;99.90;;;;;;5027506;28;20056;-35
2023/12/08 11:37:01;;;;;;;9.20;5.53;;;12.60;99.90;;;;;;5023865;28;20037;-35
2023/12/08 11:39:43;;;;;;;9.93;5.80;;;11.40;99.90;;;;;;5025161;28;20033;-36
2023/12/08 11:42:16;;;;;;;10.07;6.53;;;11.60;99.90;;;;;;5023797;28;20404;-36
2023/12/08 11:44:44;;;;;;;11.40;7.45;;;12.20;99.90;;;;;;5014520;28;20113;-35
2023/12/08 11:47:11;;;;;;;12.25;8.23;;;11.90;99.90;;;;;;5025957;28;20611;-35
2023/12/08 11:49:38;;;;;;;9.95;6.93;;;12.10;99.90;;;;;;5026843;28;20172;-35
2023/12/08 11:52:13;;;;;;;10.57;6.55;;;12.40;99.90;;;;;;5029731;28;20098;-36
2023/12/08 11:55:00;;;;;;;13.65;7.65;;;11.70;99.90;;;;;;5026674;28;20493;-34
2023/12/08 11:57:27;;;;;;;11.40;7.05;;;11.80;99.90;;;;;;5023449;28;20037;-33
2023/12/08 11:59:54;;;;;;;9.85;6.53;;;11.90;99.90;;;;;;5022090;28;20042;-35
2023/12/08 12:02:20;;;;;;;12.00;7.68;;;12.40;99.90;;;;;;5024505;28;20036;-34
2023/12/08 12:04:50;;;;;;;11.52;7.82;;;12.20;99.90;;;;;;5026340;28;20041;-36
2023/12/08 12:07:19;;;;;;;12.20;6.47;;;11.70;99.90;;;;;;5021181;28;20053;-35
2023/12/08 12:09:48;;;;;;;10.57;6.82;;;11.30;99.90;;;;;;5023284;28;20512;-34
2023/12/08 12:12:27;;;;;;;10.98;7.30;;;11.90;99.90;;;;;;5026493;28;20045;-35
2023/12/08 12:14:58;;;;;;;13.45;8.35;;;11.60;99.90;;;;;;5028802;28;20037;-35
2023/12/08 12:17:24;;;;;;;11.45;7.32;;;11.80;99.90;;;;;;5027429;28;20099;-35
2023/12/08 12:19:51;;;;;;;13.20;8.85;;;11.70;99.90;;;;;;5022982;28;20512;-33
2023/12/08 12:22:17;;;;;;;13.30;8.63;;;11.30;99.90;;;;;;5026377;28;20043;-36
2023/12/08 12:24:43;;;;;;;11.52;7.78;;;12.30;99.90;;;;;;5029300;28;20335;-38
2023/12/08 12:27:08;;;;;;;12.07;7.43;;;12.00;99.90;;;;;;5027727;28;20049;-35
2023/12/08 12:29:34;;;;;;;12.35;8.30;;;11.80;99.90;;;;;;5030237;28;20041;-36
2023/12/08 12:32:00;;;;;;;12.48;8.35;;;12.10;99.90;;;;;;5024473;28;20037;-38
2023/12/08 12:34:26;;;;;;;16.13;10.52;;;12.00;99.90;;;;;;5025162;28;20036;-34
2023/12/08 12:36:51;;;;;;;16.35;11.48;;;11.50;99.90;;;;;;5028846;28;20227;-35
2023/12/08 12:39:17;;;;;;;14.20;10.70;;;12.00;99.90;;;;;;5006225;28;20413;-36
2023/12/08 12:41:43;;;;;;;16.50;10.63;;;11.80;99.90;;;;;;5028963;28;20102;-34
2023/12/08 12:44:08;;;;;;;14.02;9.65;;;11.60;99.90;;;;;;5026630;28;20041;-36
2023/12/08 12:46:34;;;;;;;15.82;9.55;;;11.20;99.90;;;;;;5029934;28;20526;-35